sensor_id;sensor_type;location;lat;lon;timestamp;pressure;altitude;pressure_sealevel;temperature
76347;BMP280;73309;48.818;9.806;2024-03-07T20:58:05;96737.41;;;5.61
76347;BMP280;73309;48.818;9.806;2024-03-07T21:00:30;96730.28;;;4.56
76347;BMP280;73309;48.818;9.806;2024-03-07T21:02:56;96733.03;;;4.47
76347;BMP280;73309;48.818;9.806;2024-03-07T21:07:48;96732.47;;;4.40
76347;BMP280;73309;48.818;9.806;2024-03-07T21:10:16;96733.50;;;4.33
76347;BMP280;73309;48.818;9.806;2024-03-07T21:12:45;96725.47;;;4.35
76347;BMP280;77107;48.816;9.966;2024-03-07T21:15:10;96732.75;;;4.33
76347;BMP280;77107;48.816;9.966;2024-03-07T21:17:38;96730.78;;;4.21
76347;BMP280;77107;48.816;9.966;2024-03-07T21:20:06;96731.66;;;4.18
76347;BMP280;77107;48.816;9.966;2024-03-07T21:22:38;96729.13;;;4.11
76347;BMP280;77107;48.816;9.966;2024-03-07T21:25:08;96724.00;;;4.09
76347;BMP280;77107;48.816;9.966;2024-03-07T21:27:33;96726.13;;;4.05
76347;BMP280;77107;48.816;9.966;2024-03-07T21:29:59;96721.44;;;4.02
76347;BMP280;77107;48.816;9.966;2024-03-07T21:32:25;96728.72;;;4.00
76347;BMP280;77107;48.816;9.966;2024-03-07T21:34:50;96731.75;;;3.93
76347;BMP280;77107;48.816;9.966;2024-03-07T21:37:16;96723.28;;;3.84
76347;BMP280;77107;48.816;9.966;2024-03-07T21:39:42;96720.91;;;3.82
76347;BMP280;77107;48.816;9.966;2024-03-07T21:42:09;96719.38;;;3.81
76347;BMP280;77107;48.816;9.966;2024-03-07T21:44:34;96714.34;;;3.89
76347;BMP280;77107;48.816;9.966;2024-03-07T21:47:03;96709.06;;;3.91
76347;BMP280;77107;48.816;9.966;2024-03-07T21:49:28;96711.91;;;3.78
76347;BMP280;77107;48.816;9.966;2024-03-07T21:52:02;96712.09;;;3.84
76347;BMP280;77107;48.816;9.966;2024-03-07T21:54:28;96707.78;;;3.70
76347;BMP280;77107;48.816;9.966;2024-03-07T21:56:53;96704.66;;;3.68
76347;BMP280;77107;48.816;9.966;2024-03-07T21:59:20;96706.22;;;3.69
76347;BMP280;77107;48.816;9.966;2024-03-07T22:01:45;96710.06;;;3.50
76347;BMP280;77107;48.816;9.966;2024-03-07T22:04:11;96706.03;;;3.51
76347;BMP280;77107;48.816;9.966;2024-03-07T22:06:36;96706.69;;;3.55
76347;BMP280;77107;48.816;9.966;2024-03-07T22:09:02;96698.78;;;3.54
76347;BMP280;77107;48.816;9.966;2024-03-07T22:11:27;96705.47;;;3.44
76347;BMP280;77107;48.816;9.966;2024-03-07T22:13:53;96695.31;;;3.50
76347;BMP280;77107;48.816;9.966;2024-03-07T22:16:20;96701.81;;;3.34
76347;BMP280;77107;48.816;9.966;2024-03-07T22:18:45;96688.84;;;3.40
76347;BMP280;77107;48.816;9.966;2024-03-07T22:21:12;96687.50;;;3.32
76347;BMP280;77107;48.816;9.966;2024-03-07T22:23:37;96682.41;;;3.31
76347;BMP280;77107;48.816;9.966;2024-03-07T22:26:03;96689.22;;;3.17
76347;BMP280;77107;48.816;9.966;2024-03-07T22:28:28;96686.19;;;3.24
76347;BMP280;77107;48.816;9.966;2024-03-07T22:30:54;96678.16;;;3.26
76347;BMP280;77107;48.816;9.966;2024-03-07T22:33:20;96669.56;;;3.21
76347;BMP280;77107;48.816;9.966;2024-03-07T22:35:46;96673.03;;;3.25
76347;BMP280;77107;48.816;9.966;2024-03-07T22:38:11;96666.47;;;3.19
76347;BMP280;77107;48.816;9.966;2024-03-07T22:40:39;96666.00;;;3.20
76347;BMP280;77107;48.816;9.966;2024-03-07T22:43:05;96670.56;;;3.14
76347;BMP280;77107;48.816;9.966;2024-03-07T22:45:30;96669.94;;;3.10
76347;BMP280;77107;48.816;9.966;2024-03-07T22:47:55;96664.44;;;2.94
76347;BMP280;77107;48.816;9.966;2024-03-07T22:50:22;96661.66;;;2.94
76347;BMP280;77107;48.816;9.966;2024-03-07T22:52:48;96650.06;;;2.83
76347;BMP280;77107;48.816;9.966;2024-03-07T22:55:16;96663.78;;;2.90
76347;BMP280;77107;48.816;9.966;2024-03-07T22:57:42;96652.50;;;2.94
76347;BMP280;77107;48.816;9.966;2024-03-07T23:00:10;96648.03;;;2.84
76347;BMP280;77107;48.816;9.966;2024-03-07T23:02:49;96654.75;;;2.86
76347;BMP280;77107;48.816;9.966;2024-03-07T23:05:15;96652.31;;;2.88
76347;BMP280;77107;48.816;9.966;2024-03-07T23:07:42;96644.50;;;2.83
76347;BMP280;77107;48.816;9.966;2024-03-07T23:10:08;96643.94;;;2.76
76347;BMP280;77107;48.816;9.966;2024-03-07T23:12:37;96631.69;;;2.86
76347;BMP280;77107;48.816;9.966;2024-03-07T23:15:04;96634.59;;;2.82
76347;BMP280;77107;48.816;9.966;2024-03-07T23:17:29;96626.31;;;2.91
76347;BMP280;77107;48.816;9.966;2024-03-07T23:19:54;96637.47;;;2.91
76347;BMP280;77107;48.816;9.966;2024-03-07T23:22:21;96629.56;;;2.77
76347;BMP280;77107;48.816;9.966;2024-03-07T23:24:47;96627.53;;;2.78
76347;BMP280;77107;48.816;9.966;2024-03-07T23:27:13;96637.34;;;2.70
76347;BMP280;77107;48.816;9.966;2024-03-07T23:29:38;96625.31;;;2.73
76347;BMP280;77107;48.816;9.966;2024-03-07T23:32:04;96632.78;;;2.76
76347;BMP280;77107;48.816;9.966;2024-03-07T23:34:30;96629.00;;;2.70
76347;BMP280;77107;48.816;9.966;2024-03-07T23:36:56;96626.78;;;2.77
76347;BMP280;77107;48.816;9.966;2024-03-07T23:39:21;96624.09;;;2.74
76347;BMP280;77107;48.816;9.966;2024-03-07T23:41:48;96612.72;;;2.68
76347;BMP280;77107;48.816;9.966;2024-03-07T23:44:14;96619.53;;;2.67
76347;BMP280;77107;48.816;9.966;2024-03-07T23:46:40;96619.09;;;2.69
76347;BMP280;77107;48.816;9.966;2024-03-07T23:49:05;96611.28;;;2.64
76347;BMP280;77107;48.816;9.966;2024-03-07T23:51:30;96614.50;;;2.62
76347;BMP280;77107;48.816;9.966;2024-03-07T23:53:57;96609.38;;;2.61
76347;BMP280;77107;48.816;9.966;2024-03-07T23:56:22;96607.47;;;2.58
76347;BMP280;77107;48.816;9.966;2024-03-07T23:58:49;96600.13;;;2.51
